Time;durP1;ratioP1;P1;durP2;ratioP2;P2;SDS_P1;SDS_P2;PMS_P1;PMS_P2;Temp;Humidity;BMP_temperature;BMP_pressure;BME280_temperature;BME280_humidity;BME280_pressure;Samples;Min_cycle;Max_cycle;Signal;HPM_P1;HPM_P2
2023/01/12 00:00:55;;;;;;;;;;;8.80;99.90;;;;;;5082325;28;19994;-64
2023/01/12 00:03:20;;;;;;;;;;;8.80;99.90;;;;;;5086245;28;19913;-65
2023/01/12 00:05:46;;;;;;;;;;;8.80;99.90;;;;;;5069533;28;19916;-64
2023/01/12 00:08:11;;;;;;;;;;;8.70;99.90;;;;;;5069542;28;20023;-65
2023/01/12 00:10:37;;;;;;;;;;;8.60;99.90;;;;;;5072844;28;19920;-64
2023/01/12 00:13:02;;;;;;;;;;;8.50;99.90;;;;;;5081865;28;20007;-64
2023/01/12 00:16:33;;;;;;;;;;;8.60;99.90;;;;;;5075703;28;19920;-64
2023/01/12 00:18:19;;;;;;;;;;;8.60;99.90;;;;;;5074730;28;20388;-66
2023/01/12 00:20:48;;;;;;;;;;;8.60;99.90;;;;;;5082304;28;19916;-64
2023/01/12 00:23:13;;;;;;;;;;;8.60;99.90;;;;;;5074252;28;19916;-64
2023/01/12 00:25:39;;;;;;;;;;;8.60;99.90;;;;;;5073459;28;20015;-64
2023/01/12 00:28:04;;;;;;;;;;;8.60;99.90;;;;;;5078943;28;19920;-65
2023/01/12 00:30:30;;;;;;;;;;;8.70;99.90;;;;;;5076538;28;19949;-63
2023/01/12 00:32:55;;;;;;;;;;;8.70;99.90;;;;;;5092030;28;19959;-65
2023/01/12 00:35:22;;;;;;;;;;;8.70;99.90;;;;;;5107552;28;20384;-64
2023/01/12 00:37:48;;;;;;;;;;;8.60;99.90;;;;;;5094794;28;19915;-65
2023/01/12 00:40:13;;;;;;;;;;;8.60;99.90;;;;;;5078052;28;19911;-64
2023/01/12 00:45:23;;;;;;;;;;;8.60;99.90;;;;;;5094025;28;20436;-63
2023/01/12 00:47:49;;;;;;;;;;;8.60;99.90;;;;;;5097187;28;19912;-64
2023/01/12 00:50:14;;;;;;;;;;;8.50;99.90;;;;;;5109143;28;19991;-65
2023/01/12 00:52:40;;;;;;;;;;;8.60;99.90;;;;;;5101134;28;19934;-64
2023/01/12 00:55:06;;;;;;;;;;;8.60;99.90;;;;;;5092375;28;20361;-63
2023/01/12 00:57:31;;;;;;;;;;;8.50;99.90;;;;;;5093506;28;20378;-64
2023/01/12 00:59:58;;;;;;;;;;;8.50;99.90;;;;;;5094325;28;19966;-65
2023/01/12 01:02:25;;;;;;;;;;;8.60;99.90;;;;;;5094369;28;19988;-65
2023/01/12 01:04:50;;;;;;;;;;;8.60;99.90;;;;;;5086077;28;20399;-63
2023/01/12 01:07:17;;;;;;;;;;;8.70;99.90;;;;;;5094117;28;19947;-65
2023/01/12 01:09:43;;;;;;;;;;;8.70;99.90;;;;;;5093013;28;19909;-65
2023/01/12 01:12:08;;;;;;;;;;;8.80;99.90;;;;;;5093070;28;19922;-64
2023/01/12 01:14:34;;;;;;;;;;;8.80;99.90;;;;;;5092913;28;19983;-64
2023/01/12 01:17:00;;;;;;;;;;;8.90;99.90;;;;;;5097392;28;19919;-64
2023/01/12 01:19:25;;;;;;;;;;;9.00;99.90;;;;;;5109862;28;19911;-64
2023/01/12 01:21:51;;;;;;;;;;;9.00;99.90;;;;;;5099764;28;19945;-64
2023/01/12 01:24:16;;;;;;;;;;;8.90;99.90;;;;;;5092566;28;19912;-64
2023/01/12 01:26:42;;;;;;;;;;;9.00;99.90;;;;;;5101798;28;19911;-64
2023/01/12 01:29:08;;;;;;;;;;;8.90;99.90;;;;;;5103314;28;19938;-63
2023/01/12 01:31:34;;;;;;;;;;;9.00;99.90;;;;;;5108535;28;19964;-63
2023/01/12 01:33:59;;;;;;;;;;;9.00;99.90;;;;;;5109084;28;20401;-63
2023/01/12 01:36:25;;;;;;;;;;;9.10;99.90;;;;;;5104885;28;20010;-63
2023/01/12 01:38:51;;;;;;;;;;;9.10;99.90;;;;;;5086776;28;19944;-65
2023/01/12 01:41:18;;;;;;;;;;;9.10;99.90;;;;;;5077034;28;20003;-64
2023/01/12 01:43:48;;;;;;;;;;;9.20;99.90;;;;;;5077387;28;19951;-64
2023/01/12 01:46:15;;;;;;;;;;;9.10;99.90;;;;;;5077241;28;19965;-65
2023/01/12 01:48:42;;;;;;;;;;;9.10;99.90;;;;;;5077138;28;19916;-64
2023/01/12 01:51:10;;;;;;;;;;;9.10;99.90;;;;;;5078375;28;19912;-63
2023/01/12 01:53:38;;;;;;;;;;;9.10;99.90;;;;;;5074036;28;19951;-63
2023/01/12 01:56:06;;;;;;;;;;;9.10;99.90;;;;;;5081043;28;19919;-64
2023/01/12 01:58:38;;;;;;;;;;;9.00;99.90;;;;;;5080376;28;19962;-62
2023/01/12 02:01:04;;;;;;;;;;;9.00;99.90;;;;;;5102785;28;19915;-63
2023/01/12 02:03:30;;;;;;;;;;;9.10;99.90;;;;;;5108749;28;19908;-63
2023/01/12 02:05:56;;;;;;;;;;;9.00;99.90;;;;;;5106328;28;19963;-64
2023/01/12 02:08:31;;;;;;;;;;;9.00;99.90;;;;;;5108511;28;19912;-63
2023/01/12 02:10:57;;;;;;;;;;;8.90;99.90;;;;;;5108690;28;19918;-64
2023/01/12 02:16:20;;;;;;;;;;;8.90;99.90;;;;;;5095087;28;20380;-62
2023/01/12 02:18:45;;;;;;;;;;;9.00;99.90;;;;;;5109011;28;19912;-63
2023/01/12 02:21:19;;;;;;;;;;;9.10;99.90;;;;;;5099472;28;19915;-63
2023/01/12 02:24:02;;;;;;;;;;;9.00;99.90;;;;;;5079078;28;20231;-64
2023/01/12 02:26:40;;;;;;;;;;;8.90;99.90;;;;;;5102188;28;20003;-63
2023/01/12 02:29:05;;;;;;;;;;;8.90;99.90;;;;;;5108129;28;19980;-64
2023/01/12 02:31:38;;;;;;;;;;;9.00;99.90;;;;;;5097541;28;20365;-64
2023/01/12 02:34:23;;;;;;;;;;;9.00;99.90;;;;;;5109212;28;19998;-64
2023/01/12 02:36:49;;;;;;;;;;;9.00;99.90;;;;;;5104183;28;19997;-65
2023/01/12 02:39:20;;;;;;;;;;;9.10;99.90;;;;;;5111342;28;20338;-64
2023/01/12 02:44:52;;;;;;;;;;;9.20;99.90;;;;;;5095548;28;19922;-64
2023/01/12 02:47:24;;;;;;;;;;;9.30;99.90;;;;;;5096640;28;19912;-63
2023/01/12 02:49:52;;;;;;;;;;;9.30;99.90;;;;;;5094968;28;20042;-63
2023/01/12 02:52:20;;;;;;;;;;;9.20;99.90;;;;;;5098814;28;19998;-64
2023/01/12 02:54:47;;;;;;;;;;;9.20;99.90;;;;;;5105063;28;19950;-63
2023/01/12 02:57:13;;;;;;;;;;;9.20;99.90;;;;;;5101741;28;20385;-64
2023/01/12 02:59:40;;;;;;;;;;;9.20;99.90;;;;;;5097219;28;19920;-64
2023/01/12 03:02:07;;;;;;;;;;;9.10;99.90;;;;;;5108464;28;19911;-63
2023/01/12 03:04:33;;;;;;;;;;;9.10;99.90;;;;;;5109600;28;19915;-63
2023/01/12 03:06:59;;;;;;;;;;;9.10;99.90;;;;;;5105626;28;20411;-63
2023/01/12 03:09:30;;;;;;;;;;;9.20;99.90;;;;;;5108750;28;19908;-63
2023/01/12 03:12:02;;;;;;;;;;;9.20;99.90;;;;;;5101162;28;19912;-64
2023/01/12 03:14:30;;;;;;;;;;;9.10;99.90;;;;;;5091085;28;19912;-64
2023/01/12 03:16:55;;;;;;;;;;;9.10;99.90;;;;;;5106583;28;19951;-65
2023/01/12 03:19:25;;;;;;;;;;;9.00;99.90;;;;;;5087554;28;19960;-64
2023/01/12 03:21:53;;;;;;;;;;;9.10;99.90;;;;;;5100984;28;19915;-64
2023/01/12 03:24:25;;;;;;;;;;;9.00;99.90;;;;;;5102726;28;19972;-63
2023/01/12 03:26:53;;;;;;;;;;;9.00;99.90;;;;;;5072382;28;20125;-62
2023/01/12 03:29:33;;;;;;;;;;;8.90;99.90;;;;;;5075746;28;19984;-63
2023/01/12 03:31:59;;;;;;;;;;;8.90;99.90;;;;;;5077668;28;19920;-63
2023/01/12 03:34:25;;;;;;;;;;;8.90;99.90;;;;;;5077606;28;19974;-63
2023/01/12 03:37:09;;;;;;;;;;;8.90;99.90;;;;;;5076446;28;19919;-63
2023/01/12 03:39:37;;;;;;;;;;;8.90;99.90;;;;;;5074866;28;19916;-64
2023/01/12 03:42:06;;;;;;;;;;;9.00;99.90;;;;;;5076648;28;20270;-64
2023/01/12 03:44:45;;;;;;;;;;;9.00;99.90;;;;;;5073673;28;19918;-64
2023/01/12 03:47:13;;;;;;;;;;;9.00;99.90;;;;;;5077367;28;19916;-64
2023/01/12 03:49:42;;;;;;;;;;;9.00;99.90;;;;;;5073063;28;20018;-64
2023/01/12 03:52:08;;;;;;;;;;;9.20;99.90;;;;;;5077899;28;20358;-64
2023/01/12 03:54:35;;;;;;;;;;;9.20;99.90;;;;;;5073470;28;19912;-64
2023/01/12 03:57:02;;;;;;;;;;;9.30;99.90;;;;;;5079206;28;20045;-65
2023/01/12 03:59:28;;;;;;;;;;;9.30;99.90;;;;;;5088244;28;20362;-63
2023/01/12 04:01:53;;;;;;;;;;;9.40;99.90;;;;;;5094358;28;19920;-63
2023/01/12 04:04:19;;;;;;;;;;;9.30;99.90;;;;;;5101613;28;19959;-64
2023/01/12 04:06:44;;;;;;;;;;;9.40;99.90;;;;;;5105614;28;19916;-64
2023/01/12 04:09:10;;;;;;;;;;;9.40;99.90;;;;;;5107277;28;19914;-63
2023/01/12 04:14:19;;;;;;;;;;;9.50;99.90;;;;;;5105617;28;19962;-63
2023/01/12 04:16:45;;;;;;;;;;;9.70;99.90;;;;;;5094522;28;19924;-63
2023/01/12 04:19:11;;;;;;;;;;;9.90;99.90;;;;;;5071498;28;19912;-63
2023/01/12 04:24:20;;;;;;;;;;;10.00;99.90;;;;;;5075596;28;19965;-64
2023/01/12 04:26:46;;;;;;;;;;;10.00;99.90;;;;;;5083887;28;19916;-64
2023/01/12 04:29:12;;;;;;;;;;;10.10;99.90;;;;;;5078123;28;19921;-63
2023/01/12 04:31:38;;;;;;;;;;;10.20;99.90;;;;;;5080360;28;20547;-64
2023/01/12 04:34:03;;;;;;;;;;;10.20;99.90;;;;;;5079340;28;19923;-64
2023/01/12 04:36:29;;;;;;;;;;;10.20;99.90;;;;;;5076541;28;19912;-66
2023/01/12 04:38:54;;;;;;;;;;;10.30;99.90;;;;;;5076701;28;19912;-64
2023/01/12 04:41:20;;;;;;;;;;;10.40;99.90;;;;;;5073652;28;19916;-64
2023/01/12 04:43:45;;;;;;;;;;;10.40;99.90;;;;;;5106231;28;20002;-64
2023/01/12 04:46:11;;;;;;;;;;;10.40;99.90;;;;;;5076998;28;19924;-64
2023/01/12 04:48:38;;;;;;;;;;;10.50;99.90;;;;;;5078415;28;20325;-64
2023/01/12 04:51:04;;;;;;;;;;;10.50;99.90;;;;;;5077802;28;20345;-64
2023/01/12 04:53:29;;;;;;;;;;;10.60;99.90;;;;;;5077637;28;20007;-64
2023/01/12 04:55:55;;;;;;;;;;;10.70;99.90;;;;;;5076255;28;20302;-65
2023/01/12 04:58:21;;;;;;;;;;;10.70;99.90;;;;;;5080417;28;19921;-64
2023/01/12 05:00:46;;;;;;;;;;;10.70;99.90;;;;;;5079745;28;20340;-65
2023/01/12 05:03:12;;;;;;;;;;;10.70;99.90;;;;;;5082332;28;19920;-63
2023/01/12 05:05:38;;;;;;;;;;;10.70;99.90;;;;;;5082405;28;19924;-63
2023/01/12 05:10:53;;;;;;;;;;;10.80;99.90;;;;;;5080092;28;19922;-64
2023/01/12 05:13:18;;;;;;;;;;;10.80;99.90;;;;;;5087178;28;20018;-63
2023/01/12 05:15:44;;;;;;;;;;;10.90;99.90;;;;;;5091210;28;20039;-64
2023/01/12 05:18:09;;;;;;;;;;;10.90;99.90;;;;;;5080027;28;19912;-64
2023/01/12 05:20:35;;;;;;;;;;;11.00;99.90;;;;;;5080650;28;19916;-66
2023/01/12 05:23:01;;;;;;;;;;;10.90;99.90;;;;;;5104766;28;20435;-64
2023/01/12 05:25:28;;;;;;;;;;;11.00;99.90;;;;;;5109807;28;19912;-64
2023/01/12 05:27:54;;;;;;;;;;;11.00;99.90;;;;;;5105778;28;20462;-63
2023/01/12 05:30:19;;;;;;;;;;;11.10;99.90;;;;;;5107427;28;19919;-64
2023/01/12 05:32:45;;;;;;;;;;;11.10;99.90;;;;;;5110595;28;20011;-64
2023/01/12 05:35:11;;;;;;;;;;;11.10;99.90;;;;;;5104251;28;19920;-64
2023/01/12 05:37:36;;;;;;;;;;;11.10;99.90;;;;;;5087698;28;19920;-65
2023/01/12 05:40:02;;;;;;;;;;;11.00;99.90;;;;;;5096943;28;20358;-65
2023/01/12 05:45:32;;;;;;;;;;;11.00;99.90;;;;;;5058798;28;19999;-64
2023/01/12 05:48:00;;;;;;;;;;;10.90;99.90;;;;;;5057446;28;19912;-65
2023/01/12 05:50:26;;;;;;;;;;;10.80;99.90;;;;;;5053729;28;19923;-64
2023/01/12 05:52:52;;;;;;;;;;;10.80;99.90;;;;;;5105014;28;20365;-65
2023/01/12 05:55:17;;;;;;;;;;;10.90;99.90;;;;;;5093535;28;19978;-64
2023/01/12 05:57:43;;;;;;;;;;;10.80;99.90;;;;;;5101616;28;20300;-63
2023/01/12 06:00:09;;;;;;;;;;;10.80;99.90;;;;;;5099089;28;19958;-65
2023/01/12 06:02:34;;;;;;;;;;;10.70;99.90;;;;;;5096762;28;19919;-65
2023/01/12 06:05:00;;;;;;;;;;;10.70;99.90;;;;;;5108076;28;19952;-64
2023/01/12 06:07:25;;;;;;;;;;;10.60;99.90;;;;;;5108234;28;20426;-66
2023/01/12 06:09:51;;;;;;;;;;;10.60;99.90;;;;;;5109095;28;20262;-67
2023/01/12 06:15:01;;;;;;;;;;;10.50;99.90;;;;;;5110142;28;19953;-64
2023/01/12 06:17:26;;;;;;;;;;;10.50;99.90;;;;;;5105836;28;19916;-64
2023/01/12 06:19:52;;;;;;;;;;;10.50;99.90;;;;;;5097780;28;19912;-64
2023/01/12 06:22:18;;;;;;;;;;;10.50;99.90;;;;;;5105600;28;19927;-64
2023/01/12 06:24:47;;;;;;;;;;;10.50;99.90;;;;;;5108865;28;19919;-64
2023/01/12 06:27:13;;;;;;;;;;;10.60;99.90;;;;;;5102086;28;19966;-64
2023/01/12 06:29:39;;;;;;;;;;;10.70;99.90;;;;;;5109708;28;19922;-65
2023/01/12 06:32:05;;;;;;;;;;;10.70;99.90;;;;;;5108737;28;19912;-64
2023/01/12 06:34:33;;;;;;;;;;;10.60;99.90;;;;;;5082625;28;19919;-65
2023/01/12 06:36:59;;;;;;;;;;;10.60;99.90;;;;;;5102029;28;20021;-65
2023/01/12 06:39:24;;;;;;;;;;;10.60;99.90;;;;;;5111178;28;19919;-65
2023/01/12 06:44:34;;;;;;;;;;;10.50;99.90;;;;;;5101685;28;19922;-64
2023/01/12 06:47:01;;;;;;;;;;;10.40;99.90;;;;;;5107633;28;20314;-65
2023/01/12 06:49:26;;;;;;;;;;;10.30;99.90;;;;;;5096134;28;20289;-64
2023/01/12 06:51:52;;;;;;;;;;;10.30;99.90;;;;;;5095240;28;19915;-65
2023/01/12 06:54:17;;;;;;;;;;;10.20;99.90;;;;;;5095413;28;20008;-65
2023/01/12 06:56:43;;;;;;;;;;;10.30;99.90;;;;;;5103029;28;19915;-65
2023/01/12 06:59:11;;;;;;;;;;;10.30;99.90;;;;;;5110347;28;19972;-66
2023/01/12 07:01:37;;;;;;;;;;;10.30;99.90;;;;;;5104374;28;19912;-64
2023/01/12 07:04:02;;;;;;;;;;;10.20;99.90;;;;;;5112189;28;19919;-64
2023/01/12 07:06:28;;;;;;;;;;;10.30;99.90;;;;;;5104371;28;20373;-63
2023/01/12 07:08:54;;;;;;;;;;;10.20;99.90;;;;;;5107559;28;19915;-63
2023/01/12 07:11:19;;;;;;;;;;;10.20;99.90;;;;;;5100018;28;19919;-65
2023/01/12 07:13:45;;;;;;;;;;;10.10;99.90;;;;;;5110892;28;19907;-64
2023/01/12 07:16:10;;;;;;;;;;;10.30;99.90;;;;;;5098768;28;19954;-65
2023/01/12 07:18:36;;;;;;;;;;;10.40;99.90;;;;;;5097218;28;20056;-64
2023/01/12 07:21:06;;;;;;;;;;;10.40;99.90;;;;;;5077898;28;19916;-65
2023/01/12 07:23:31;;;;;;;;;;;10.50;99.90;;;;;;5072355;28;20025;-64
2023/01/12 07:25:57;;;;;;;;;;;10.60;99.90;;;;;;5076140;28;20030;-65
2023/01/12 07:28:22;;;;;;;;;;;10.70;99.90;;;;;;5076223;28;19916;-65
2023/01/12 07:30:48;;;;;;;;;;;10.70;99.90;;;;;;5075247;28;20286;-64
2023/01/12 07:33:14;;;;;;;;;;;10.70;99.90;;;;;;5074869;28;20207;-65
2023/01/12 07:35:40;;;;;;;;;;;10.70;99.90;;;;;;5077233;28;19912;-65
2023/01/12 07:38:05;;;;;;;;;;;10.60;99.90;;;;;;5073125;28;19931;-65
2023/01/12 07:40:31;;;;;;;;;;;10.60;99.90;;;;;;5075261;28;19947;-64
2023/01/12 07:43:01;;;;;;;;;;;10.70;99.90;;;;;;5077351;28;19981;-64
2023/01/12 07:45:27;;;;;;;;;;;10.90;99.90;;;;;;5076376;28;19919;-63
2023/01/12 07:47:53;;;;;;;;;;;11.10;99.90;;;;;;5072969;28;19918;-63
2023/01/12 07:50:23;;;;;;;;;;;11.10;99.90;;;;;;5078190;28;19951;-64
2023/01/12 07:52:48;;;;;;;;;;;11.00;99.90;;;;;;5078857;28;20376;-62
2023/01/12 07:55:15;;;;;;;;;;;11.00;99.90;;;;;;5074743;28;19926;-64
2023/01/12 07:58:02;;;;;;;;;;;11.00;99.90;;;;;;5077549;28;19924;-64
2023/01/12 08:00:28;;;;;;;;;;;11.10;99.90;;;;;;5096577;28;19994;-63
2023/01/12 08:02:57;;;;;;;;;;;11.10;99.90;;;;;;5088426;28;19916;-64
2023/01/12 08:05:23;;;;;;;;;;;11.10;99.90;;;;;;5085870;28;19962;-65
2023/01/12 08:07:49;;;;;;;;;;;11.10;99.90;;;;;;5065540;28;19920;-65
2023/01/12 08:10:14;;;;;;;;;;;11.10;99.90;;;;;;5092460;28;20003;-65
2023/01/12 08:12:40;;;;;;;;;;;11.00;99.90;;;;;;5089405;28;19999;-65
2023/01/12 08:15:07;;;;;;;;;;;11.10;99.90;;;;;;5093449;28;19918;-65
2023/01/12 08:17:34;;;;;;;;;;;11.10;99.90;;;;;;5098971;28;20290;-65
2023/01/12 08:20:02;;;;;;;;;;;11.10;99.90;;;;;;5096877;28;19931;-64
2023/01/12 08:22:31;;;;;;;;;;;11.20;99.90;;;;;;5096849;28;19939;-63
2023/01/12 08:25:09;;;;;;;;;;;11.20;99.90;;;;;;5102727;28;19911;-63
2023/01/12 08:27:35;;;;;;;;;;;11.30;99.90;;;;;;5093877;28;20438;-66
2023/01/12 08:30:03;;;;;;;;;;;11.40;99.90;;;;;;5096898;28;19994;-64
2023/01/12 08:32:29;;;;;;;;;;;11.40;99.90;;;;;;5098155;28;19916;-64
2023/01/12 08:34:56;;;;;;;;;;;11.40;99.90;;;;;;5094823;28;20535;-65
2023/01/12 08:37:23;;;;;;;;;;;11.50;99.90;;;;;;5088382;28;19912;-63
2023/01/12 08:39:49;;;;;;;;;;;11.60;99.90;;;;;;5096225;28;20573;-63
2023/01/12 08:42:15;;;;;;;;;;;11.70;99.90;;;;;;5074303;28;20464;-64
2023/01/12 08:44:40;;;;;;;;;;;11.90;99.90;;;;;;5099565;28;20054;-64
2023/01/12 08:47:14;;;;;;;;;;;11.90;99.90;;;;;;5100013;28;20615;-63
2023/01/12 08:49:39;;;;;;;;;;;11.90;99.90;;;;;;5087671;28;19916;-64
2023/01/12 08:52:05;;;;;;;;;;;12.00;99.90;;;;;;5099828;28;19938;-64
2023/01/12 08:54:30;;;;;;;;;;;12.00;99.90;;;;;;5101005;28;19966;-65
2023/01/12 08:56:59;;;;;;;;;;;12.00;99.90;;;;;;5093940;28;19912;-64
2023/01/12 08:59:24;;;;;;;;;;;12.10;99.90;;;;;;5102349;28;20527;-65
2023/01/12 09:01:50;;;;;;;;;;;12.20;99.90;;;;;;5099519;28;19922;-64
2023/01/12 09:04:16;;;;;;;;;;;12.30;99.90;;;;;;5105703;28;20266;-64
2023/01/12 09:06:43;;;;;;;;;;;12.40;99.90;;;;;;5093233;28;19934;-64
2023/01/12 09:09:09;;;;;;;;;;;12.50;99.90;;;;;;5096178;28;19915;-64
2023/01/12 09:11:36;;;;;;;;;;;12.60;99.90;;;;;;5088113;28;19912;-64
2023/01/12 09:14:01;;;;;;;;;;;12.70;99.90;;;;;;5110715;28;19908;-64
2023/01/12 09:16:28;;;;;;;;;;;12.80;99.90;;;;;;5104000;28;20057;-65
2023/01/12 09:18:54;;;;;;;;;;;12.80;99.90;;;;;;5104203;28;20799;-65
2023/01/12 09:21:20;;;;;;;;;;;12.80;99.90;;;;;;5093389;28;19916;-64
2023/01/12 09:23:48;;;;;;;;;;;12.80;99.90;;;;;;5110524;28;19933;-64
2023/01/12 09:26:15;;;;;;;;;;;12.80;99.90;;;;;;5113061;28;19939;-64
2023/01/12 09:28:41;;;;;;;;;;;12.90;99.90;;;;;;5093679;28;21478;-64
2023/01/12 09:31:08;;;;;;;;;;;12.80;99.90;;;;;;5094263;28;19947;-64
2023/01/12 09:33:34;;;;;;;;;;;12.90;99.90;;;;;;5075421;28;19912;-64
2023/01/12 09:36:01;;;;;;;;;;;13.00;99.90;;;;;;5101061;28;19912;-64
2023/01/12 09:38:27;;;;;;;;;;;13.00;99.90;;;;;;5101574;28;19925;-63
2023/01/12 09:40:53;;;;;;;;;;;12.90;99.90;;;;;;5095459;28;19916;-65
2023/01/12 09:46:57;;;;;;;;;;;12.90;99.90;;;;;;5107674;28;19919;-64
2023/01/12 09:49:05;;;;;;;;;;;12.80;99.90;;;;;;5088783;28;19913;-65
2023/01/12 09:51:35;;;;;;;;;;;12.80;99.90;;;;;;5088174;28;19935;-67
2023/01/12 09:54:02;;;;;;;;;;;12.80;99.90;;;;;;5092760;28;19923;-64
2023/01/12 09:56:30;;;;;;;;;;;12.80;99.90;;;;;;5097401;28;19912;-63
2023/01/12 09:59:16;;;;;;;;;;;12.80;99.90;;;;;;5102442;28;19912;-64
2023/01/12 10:01:42;;;;;;;;;;;12.90;99.90;;;;;;5069750;28;20312;-64
2023/01/12 10:04:07;;;;;;;;;;;12.90;99.90;;;;;;5105387;28;20007;-64
2023/01/12 10:06:34;;;;;;;;;;;13.00;99.90;;;;;;5100199;28;19916;-65
2023/01/12 10:09:01;;;;;;;;;;;13.00;99.90;;;;;;5095156;28;19913;-63
2023/01/12 10:11:48;;;;;;;;;;;13.00;99.90;;;;;;5097277;28;20370;-63
2023/01/12 10:14:21;;;;;;;;;;;13.00;99.90;;;;;;5089051;28;19912;-56
2023/01/12 10:17:05;;;;;;;;;;;13.10;99.90;;;;;;5059636;28;20006;-58
2023/01/12 10:19:34;;;;;;;;;;;13.20;99.90;;;;;;5077133;28;19965;-56
2023/01/12 10:22:02;;;;;;;;;;;13.20;99.90;;;;;;5077465;28;20015;-58
2023/01/12 10:24:28;;;;;;;;;;;13.10;99.90;;;;;;5075350;28;19927;-56
2023/01/12 10:27:03;;;;;;;;;;;13.20;99.90;;;;;;5077902;28;19916;-59
2023/01/12 10:29:30;;;;;;;;;;;13.30;99.90;;;;;;5078976;28;19916;-57
2023/01/12 10:31:55;;;;;;;;;;;13.30;99.90;;;;;;5075272;28;19920;-65
2023/01/12 10:34:21;;;;;;;;;;;13.40;99.90;;;;;;5061309;28;19962;-62
2023/01/12 10:36:48;;;;;;;;;;;13.50;99.90;;;;;;5076845;28;20065;-65
2023/01/12 10:39:22;;;;;;;;;;;13.50;99.90;;;;;;5080907;28;19911;-65
2023/01/12 10:42:06;;;;;;;;;;;13.70;99.90;;;;;;5079265;28;20008;-64
2023/01/12 10:44:32;;;;;;;;;;;13.70;99.90;;;;;;5101036;28;19911;-61
2023/01/12 10:47:08;;;;;;;;;;;13.90;99.90;;;;;;5098998;28;20401;-64
2023/01/12 10:49:33;;;;;;;;;;;13.90;99.90;;;;;;5095752;28;20078;-64
2023/01/12 10:52:01;;;;;;;;;;;13.90;99.90;;;;;;5088846;28;20062;-63
2023/01/12 10:54:37;;;;;;;;;;;14.00;99.90;;;;;;5086196;28;19922;-63
2023/01/12 10:57:11;;;;;;;;;;;14.00;99.90;;;;;;5096036;28;20370;-63
2023/01/12 10:59:38;;;;;;;;;;;14.00;99.90;;;;;;5093685;28;20221;-63
2023/01/12 11:02:04;;;;;;;;;;;14.10;99.90;;;;;;5099630;28;19994;-65
2023/01/12 11:04:30;;;;;;;;;;;14.20;99.90;;;;;;5104942;28;20003;-63
2023/01/12 11:06:59;;;;;;;;;;;14.20;99.90;;;;;;5079791;28;19925;-62
2023/01/12 11:09:25;;;;;;;;;;;14.20;99.90;;;;;;5098347;28;20010;-63
2023/01/12 11:11:55;;;;;;;;;;;14.30;99.90;;;;;;5106747;28;19908;-64
2023/01/12 11:14:39;;;;;;;;;;;14.20;99.90;;;;;;5108687;28;19961;-64
2023/01/12 11:17:16;;;;;;;;;;;14.20;99.90;;;;;;5090539;28;20007;-66
2023/01/12 11:19:43;;;;;;;;;;;14.20;99.90;;;;;;5085990;28;20345;-64
2023/01/12 11:22:21;;;;;;;;;;;14.30;99.90;;;;;;5089886;28;20531;-64
2023/01/12 11:25:07;;;;;;;;;;;14.20;99.90;;;;;;5087397;28;19913;-65
2023/01/12 11:27:42;;;;;;;;;;;14.10;99.90;;;;;;5076416;28;19916;-63
2023/01/12 11:30:24;;;;;;;;;;;14.10;99.90;;;;;;5091883;28;20331;-64
2023/01/12 11:32:50;;;;;;;;;;;14.10;99.90;;;;;;5086377;28;19995;-64
2023/01/12 11:35:36;;;;;;;;;;;14.10;99.90;;;;;;5094048;28;19958;-62
2023/01/12 11:38:24;;;;;;;;;;;14.20;99.90;;;;;;5078575;28;20065;-64
2023/01/12 11:40:52;;;;;;;;;;;14.10;99.90;;;;;;5064378;28;20661;-63
2023/01/12 11:46:14;;;;;;;;;;;13.80;99.90;;;;;;5086503;28;19958;-62
2023/01/12 11:48:58;;;;;;;;;;;13.60;99.90;;;;;;5083794;28;19916;-63
2023/01/12 11:51:24;;;;;;;;;;;13.60;99.90;;;;;;5086613;28;20353;-62
2023/01/12 11:53:49;;;;;;;;;;;13.60;99.90;;;;;;5105968;28;19961;-63
2023/01/12 11:56:18;;;;;;;;;;;13.60;99.90;;;;;;5100560;28;19912;-65
2023/01/12 11:59:05;;;;;;;;;;;13.60;99.90;;;;;;5103106;28;19919;-64
2023/01/12 12:01:48;;;;;;;;;;;13.60;99.90;;;;;;5090622;28;19969;-63
2023/01/12 12:04:32;;;;;;;;;;;13.50;99.90;;;;;;5091648;28;19927;-64
2023/01/12 12:07:04;;;;;;;;;;;13.40;99.90;;;;;;5107386;28;20053;-63
2023/01/12 12:09:30;;;;;;;;;;;13.40;99.90;;;;;;5089405;28;19923;-63
2023/01/12 12:12:01;;;;;;;;;;;13.40;99.90;;;;;;5089675;28;19998;-63
2023/01/12 12:14:44;;;;;;;;;;;13.40;99.90;;;;;;5077962;28;19966;-63
2023/01/12 12:17:13;;;;;;;;;;;13.30;99.90;;;;;;5076849;28;19919;-64
2023/01/12 12:19:38;;;;;;;;;;;13.40;99.90;;;;;;5076362;28;19942;-63
2023/01/12 12:22:14;;;;;;;;;;;13.20;99.90;;;;;;5088618;28;20398;-64
2023/01/12 12:25:00;;;;;;;;;;;13.20;99.90;;;;;;5087282;28;20272;-64
2023/01/12 12:27:41;;;;;;;;;;;13.30;99.90;;;;;;5043763;28;19912;-65
2023/01/12 12:30:06;;;;;;;;;;;13.30;99.90;;;;;;5089982;28;20010;-64
2023/01/12 12:32:38;;;;;;;;;;;13.30;99.90;;;;;;5102706;28;19969;-63
2023/01/12 12:35:13;;;;;;;;;;;13.20;99.90;;;;;;5090824;28;19915;-62
2023/01/12 12:37:38;;;;;;;;;;;13.20;99.90;;;;;;5085055;28;19916;-64
2023/01/12 12:40:14;;;;;;;;;;;13.20;99.90;;;;;;5091831;28;20090;-65
2023/01/12 12:45:30;;;;;;;;;;;13.20;99.90;;;;;;5084092;28;20499;-65
2023/01/12 12:47:59;;;;;;;;;;;13.00;99.90;;;;;;5095349;28;19966;-63
2023/01/12 12:50:24;;;;;;;;;;;13.00;99.90;;;;;;5092156;28;20346;-63
2023/01/12 12:53:07;;;;;;;;;;;12.90;99.90;;;;;;5086920;28;20007;-64
2023/01/12 12:55:34;;;;;;;;;;;12.80;99.90;;;;;;5095322;28;19954;-63
2023/01/12 12:58:00;;;;;;;;;;;12.80;99.90;;;;;;5094268;28;19965;-66
2023/01/12 13:00:27;;;;;;;;;;;12.80;99.90;;;;;;5102178;28;19912;-64
2023/01/12 13:02:53;;;;;;;;;;;13.00;99.90;;;;;;5087606;28;20350;-62
2023/01/12 13:05:42;;;;;;;;;;;13.20;99.90;;;;;;5109309;28;19912;-62
2023/01/12 13:08:24;;;;;;;;;;;13.30;99.90;;;;;;5095404;28;19916;-64
2023/01/12 13:10:51;;;;;;;;;;;13.30;99.90;;;;;;5107282;28;20438;-65
2023/01/12 13:13:24;;;;;;;;;;;13.30;99.90;;;;;;5100516;28;19943;-67
2023/01/12 13:16:12;;;;;;;;;;;13.40;99.90;;;;;;5113112;28;20051;-66
2023/01/12 13:18:50;;;;;;;;;;;13.40;99.90;;;;;;5061488;28;19917;-64
2023/01/12 13:21:36;;;;;;;;;;;13.30;99.90;;;;;;5084937;28;19917;-64
2023/01/12 13:24:13;;;;;;;;;;;13.30;99.90;;;;;;5052723;28;20141;-63
2023/01/12 13:26:40;;;;;;;;;;;13.20;99.90;;;;;;5086871;28;19959;-66
2023/01/12 13:29:24;;;;;;;;;;;13.10;99.90;;;;;;5091033;28;19912;-64
2023/01/12 13:31:51;;;;;;;;;;;13.10;99.90;;;;;;5076758;28;19920;-62
2023/01/12 13:34:35;;;;;;;;;;;13.00;99.90;;;;;;5096018;28;19912;-64
2023/01/12 13:37:15;;;;;;;;;;;13.10;99.90;;;;;;5102007;28;19912;-64
2023/01/12 13:39:47;;;;;;;;;;;13.00;99.90;;;;;;5093115;28;20418;-64
2023/01/12 13:45:00;;;;;;;;;;;12.90;99.90;;;;;;5097489;28;19965;-64
2023/01/12 13:47:31;;;;;;;;;;;12.90;99.90;;;;;;5110705;28;19915;-63
2023/01/12 13:49:59;;;;;;;;;;;12.90;99.90;;;;;;5094650;28;20068;-62
2023/01/12 13:52:32;;;;;;;;;;;12.80;99.90;;;;;;5097824;28;20450;-64
2023/01/12 13:54:58;;;;;;;;;;;12.90;99.90;;;;;;5093156;28;19915;-64
2023/01/12 13:57:25;;;;;;;;;;;12.90;99.90;;;;;;5089944;28;20059;-66
2023/01/12 13:59:58;;;;;;;;;;;12.90;99.90;;;;;;5086767;28;19912;-63
2023/01/12 14:02:24;;;;;;;;;;;12.90;99.90;;;;;;5110747;28;19959;-64
2023/01/12 14:04:59;;;;;;;;;;;12.90;99.90;;;;;;5112278;28;19908;-63
2023/01/12 14:07:25;;;;;;;;;;;12.90;99.90;;;;;;5112709;28;19918;-64
2023/01/12 14:09:59;;;;;;;;;;;12.90;99.90;;;;;;5112425;28;19923;-65
2023/01/12 14:12:25;;;;;;;;;;;13.00;99.90;;;;;;5103736;28;19916;-64
2023/01/12 14:18:04;;;;;;;;;;;12.90;99.90;;;;;;5092423;28;19962;-66
2023/01/12 14:20:30;;;;;;;;;;;12.80;99.90;;;;;;5091857;28;20105;-64
2023/01/12 14:23:14;;;;;;;;;;;12.80;99.90;;;;;;5092060;28;19999;-66
2023/01/12 14:25:40;;;;;;;;;;;12.80;99.90;;;;;;5092058;28;19908;-65
2023/01/12 14:28:19;;;;;;;;;;;12.80;99.90;;;;;;5097860;28;19911;-64
2023/01/12 14:30:45;;;;;;;;;;;12.70;99.90;;;;;;5091712;28;20405;-65
2023/01/12 14:33:19;;;;;;;;;;;12.60;99.90;;;;;;5091736;28;19966;-64
2023/01/12 14:35:46;;;;;;;;;;;12.60;99.90;;;;;;5091103;28;19908;-64
2023/01/12 14:38:13;;;;;;;;;;;12.60;99.90;;;;;;5092686;28;19915;-67
2023/01/12 14:40:39;;;;;;;;;;;12.50;99.90;;;;;;5092812;28;20010;-65
2023/01/12 14:48:42;;;;;;;;;;;12.40;99.90;;;;;;5092753;28;19931;-65
2023/01/12 14:51:21;;;;;;;;;;;12.40;99.90;;;;;;5091548;28;19908;-64
2023/01/12 14:53:47;;;;;;;;;;;12.40;99.90;;;;;;5091286;28;19934;-65
2023/01/12 14:56:17;;;;;;;;;;;12.40;99.90;;;;;;5091616;28;20532;-64
2023/01/12 14:58:44;;;;;;;;;;;12.50;99.90;;;;;;5091411;28;19912;-65
2023/01/12 15:01:10;;;;;;;;;;;12.40;99.90;;;;;;5091316;28;20470;-65
2023/01/12 15:03:35;;;;;;;;;;;12.40;99.90;;;;;;5091419;28;19908;-65
2023/01/12 15:06:01;;;;;;;;;;;12.40;99.90;;;;;;5090974;28;19916;-63
2023/01/12 15:08:27;;;;;;;;;;;12.30;99.90;;;;;;5090615;28;19915;-65
2023/01/12 15:10:57;;;;;;;;;;;12.30;99.90;;;;;;5091292;28;19962;-63
2023/01/12 15:13:24;;;;;;;;;;;12.20;99.90;;;;;;5090264;28;19928;-65
2023/01/12 15:27:17;;;;;;;;;;;12.00;99.90;;;;;;5099660;28;19966;-63